createdAt,value
2022-10-04T00:02:24.557Z,95.76
2022-10-04T00:05:00.189Z,96.46
2022-10-04T00:07:31.104Z,96.60
2022-10-04T00:10:03.472Z,96.86
2022-10-04T00:12:36.916Z,97.54
2022-10-04T00:15:19.136Z,97.16
2022-10-04T00:18:02.425Z,97.73
2022-10-04T00:21:00.063Z,97.28
2022-10-04T00:23:31.228Z,97.72
2022-10-04T00:26:02.870Z,98.03
2022-10-04T00:28:44.045Z,97.31
2022-10-04T00:31:19.699Z,97.51
2022-10-04T00:33:50.199Z,97.33
2022-10-04T00:36:45.962Z,97.36
2022-10-04T00:39:42.801Z,96.53
2022-10-04T00:42:47.561Z,96.63
2022-10-04T00:45:27.454Z,96.91
2022-10-04T00:48:33.251Z,96.21
2022-10-04T00:51:07.189Z,96.51
2022-10-04T00:53:57.506Z,96.26
2022-10-04T00:56:33.017Z,97.50
2022-10-04T00:59:13.502Z,96.71
2022-10-04T01:01:42.983Z,96.94
2022-10-04T01:04:24.969Z,96.81
2022-10-04T01:06:53.647Z,96.76
2022-10-04T01:09:22.789Z,96.64
2022-10-04T01:12:01.421Z,96.53
2022-10-04T01:14:40.822Z,96.37
2022-10-04T01:17:10.480Z,96.44
2022-10-04T01:19:52.056Z,95.73
2022-10-04T01:22:39.353Z,96.16
2022-10-04T01:25:07.855Z,96.89
2022-10-04T01:27:41.715Z,96.52
2022-10-04T01:30:13.290Z,96.76
2022-10-04T01:32:42.071Z,96.18
2022-10-04T01:35:12.718Z,96.57
2022-10-04T01:37:42.931Z,96.02
2022-10-04T01:40:12.326Z,96.01
2022-10-04T01:42:46.950Z,95.41
2022-10-04T01:45:21.762Z,95.54
2022-10-04T01:47:55.337Z,95.15
2022-10-04T01:50:28.304Z,95.63
2022-10-04T01:53:03.540Z,95.64
2022-10-04T01:55:35.786Z,95.96
2022-10-04T01:58:11.029Z,95.82
2022-10-04T02:00:44.632Z,96.53
2022-10-04T02:03:18.856Z,96.14
2022-10-04T02:05:52.764Z,97.15
2022-10-04T02:08:28.076Z,97.20
2022-10-04T02:10:56.806Z,97.40
2022-10-04T02:13:30.091Z,97.31
2022-10-04T02:16:00.199Z,97.36
2022-10-04T02:18:29.994Z,97.63
2022-10-04T02:20:58.661Z,97.50
2022-10-04T02:23:29.273Z,97.38
2022-10-04T02:25:59.342Z,97.00
2022-10-04T02:28:27.427Z,96.58
2022-10-04T02:31:13.552Z,95.96
2022-10-04T02:33:43.423Z,96.01
2022-10-04T02:36:12.014Z,96.33
2022-10-04T02:38:49.495Z,95.65
2022-10-04T02:41:24.388Z,95.33
2022-10-04T02:43:57.920Z,95.22
2022-10-04T02:46:29.434Z,94.94
2022-10-04T02:49:00.321Z,94.46
2022-10-04T02:51:34.750Z,94.65
2022-10-04T02:54:11.799Z,94.73
2022-10-04T02:56:40.139Z,94.58
2022-10-04T02:59:08.892Z,94.59
2022-10-04T03:01:51.192Z,94.37
2022-10-04T03:04:23.427Z,94.13
2022-10-04T03:06:53.230Z,94.29
2022-10-04T03:09:29.534Z,93.89
2022-10-04T03:11:59.278Z,93.46
2022-10-04T03:14:29.835Z,92.81
2022-10-04T03:17:01.351Z,93.33
2022-10-04T03:19:30.978Z,93.19
2022-10-04T03:22:03.317Z,92.98
2022-10-04T03:24:36.338Z,92.73
2022-10-04T03:27:08.318Z,92.69
2022-10-04T03:29:40.620Z,92.60
2022-10-04T03:32:10.149Z,92.82
2022-10-04T03:34:40.144Z,92.22
2022-10-04T03:37:12.333Z,92.16
2022-10-04T03:39:45.501Z,91.92
2022-10-04T03:42:20.004Z,91.42
2022-10-04T03:44:50.356Z,92.21
2022-10-04T03:47:22.976Z,91.58
2022-10-04T03:49:52.235Z,91.30
2022-10-04T03:52:25.221Z,91.42
2022-10-04T03:54:58.503Z,91.09
2022-10-04T03:57:27.061Z,90.73
2022-10-04T03:59:55.395Z,90.67
2022-10-04T04:02:33.270Z,90.45
2022-10-04T04:05:09.953Z,90.96
2022-10-04T04:07:43.610Z,90.94
2022-10-04T04:10:20.322Z,90.77
2022-10-04T04:12:55.253Z,90.34
2022-10-04T04:15:23.742Z,91.00
2022-10-04T04:17:54.466Z,90.86
2022-10-04T04:20:26.883Z,90.75
2022-10-04T04:23:13.856Z,90.80
2022-10-04T04:25:46.152Z,91.50
2022-10-04T04:28:25.682Z,91.46
2022-10-04T04:30:58.282Z,92.42
2022-10-04T04:33:30.971Z,92.04
2022-10-04T04:36:06.410Z,91.58
2022-10-04T04:38:35.481Z,92.08
2022-10-04T04:41:11.930Z,92.03
2022-10-04T04:43:45.030Z,92.23
2022-10-04T04:46:27.022Z,92.00
2022-10-04T04:49:02.610Z,92.15
2022-10-04T04:51:32.764Z,92.22
2022-10-04T04:54:03.473Z,92.31
2022-10-04T04:56:35.870Z,91.79
2022-10-04T04:59:07.913Z,92.98
2022-10-04T05:01:38.228Z,93.43
2022-10-04T05:04:16.716Z,93.37
2022-10-04T05:06:46.336Z,93.39
2022-10-04T05:09:25.008Z,93.64
2022-10-04T05:11:58.574Z,93.37
2022-10-04T05:14:26.453Z,93.08
2022-10-04T05:16:56.316Z,93.15
2022-10-04T05:19:28.567Z,93.18
2022-10-04T05:21:58.908Z,93.08
2022-10-04T05:24:30.314Z,92.81
2022-10-04T05:27:02.690Z,92.68
2022-10-04T05:29:34.240Z,93.03
2022-10-04T05:32:13.603Z,93.20
2022-10-04T05:34:45.485Z,93.64
2022-10-04T05:37:27.085Z,93.00
2022-10-04T05:40:05.913Z,93.40
2022-10-04T05:42:41.557Z,93.44
2022-10-04T05:45:19.051Z,93.26
2022-10-04T05:47:49.499Z,93.24
2022-10-04T05:50:21.040Z,93.05
2022-10-04T05:52:51.817Z,92.75
2022-10-04T05:55:28.619Z,92.68
2022-10-04T05:58:38.466Z,91.93
2022-10-04T06:01:19.588Z,92.05
2022-10-04T06:04:05.821Z,92.06
2022-10-04T06:06:41.110Z,91.98
2022-10-04T06:09:18.959Z,92.06
2022-10-04T06:12:02.348Z,92.02
2022-10-04T06:14:44.853Z,91.97
2022-10-04T06:17:29.154Z,92.41
2022-10-04T06:20:12.808Z,92.49
2022-10-04T06:22:46.422Z,92.23
2022-10-04T06:25:24.668Z,92.53
2022-10-04T06:27:58.858Z,92.58
2022-10-04T06:30:27.430Z,92.97
2022-10-04T06:33:17.528Z,92.72
2022-10-04T06:36:17.540Z,93.12
2022-10-04T06:39:06.251Z,93.47
2022-10-04T06:41:59.701Z,93.46
2022-10-04T06:44:46.277Z,93.32
2022-10-04T06:47:28.242Z,93.66
2022-10-04T06:50:07.957Z,93.70
2022-10-04T06:52:49.591Z,93.63
2022-10-04T06:55:49.920Z,92.60
2022-10-04T06:58:46.270Z,92.83
2022-10-04T07:01:25.655Z,92.07
2022-10-04T07:03:58.488Z,91.03
2022-10-04T07:06:32.811Z,90.17
2022-10-04T07:09:05.597Z,89.18
2022-10-04T07:11:44.076Z,87.64
2022-10-04T07:14:16.684Z,87.02
2022-10-04T07:16:49.711Z,85.52
2022-10-04T07:19:38.340Z,84.35
2022-10-04T07:22:18.160Z,82.64
2022-10-04T07:25:02.219Z,83.79
2022-10-04T07:27:33.652Z,82.99
2022-10-04T07:30:04.796Z,82.87
2022-10-04T07:32:36.249Z,82.50
2022-10-04T07:35:16.761Z,81.83
2022-10-04T07:37:53.132Z,82.72
2022-10-04T07:40:26.946Z,82.59
2022-10-04T07:43:00.960Z,82.58
2022-10-04T07:45:32.814Z,83.33
2022-10-04T07:48:06.504Z,82.46
2022-10-04T07:50:40.739Z,82.22
2022-10-04T07:53:17.471Z,82.19
2022-10-04T07:55:57.037Z,82.28
2022-10-04T07:58:43.391Z,81.91
2022-10-04T08:01:23.979Z,81.91
2022-10-04T08:04:13.340Z,83.02
2022-10-04T08:06:56.431Z,82.52
2022-10-04T08:09:39.006Z,81.17
2022-10-04T08:12:16.828Z,80.79
2022-10-04T08:14:56.618Z,80.72
2022-10-04T08:17:42.844Z,79.64
2022-10-04T08:20:34.179Z,78.38
2022-10-04T08:23:14.229Z,77.94
2022-10-04T08:25:54.176Z,77.81
2022-10-04T08:28:53.550Z,76.88
2022-10-04T08:31:37.017Z,76.36
2022-10-04T08:34:25.186Z,74.70
2022-10-04T08:37:04.752Z,73.73
2022-10-04T08:39:49.694Z,72.62
2022-10-04T08:42:47.300Z,72.15
2022-10-04T08:45:48.302Z,71.37
2022-10-04T08:48:47.342Z,70.95
2022-10-04T08:51:48.195Z,70.99
2022-10-04T08:54:46.785Z,68.71
2022-10-04T08:57:43.422Z,69.15
2022-10-04T09:00:20.760Z,69.03
2022-10-04T09:03:34.672Z,68.61
2022-10-04T09:06:19.727Z,68.67
2022-10-04T09:09:23.386Z,69.13
2022-10-04T09:12:10.346Z,68.90
2022-10-04T09:15:11.763Z,68.67
2022-10-04T09:17:54.445Z,69.88
2022-10-04T09:20:38.864Z,68.93
2022-10-04T09:23:20.816Z,68.65
2022-10-04T09:25:54.734Z,68.24
2022-10-04T09:28:47.264Z,67.48
2022-10-04T09:31:28.470Z,67.06
2022-10-04T09:34:19.776Z,65.71
2022-10-04T09:37:21.485Z,66.38
2022-10-04T09:40:37.274Z,65.39
2022-10-04T09:43:30.601Z,64.01
2022-10-04T09:46:21.670Z,64.60
2022-10-04T09:48:59.972Z,64.14
2022-10-04T09:52:09.444Z,64.18
2022-10-04T09:54:59.448Z,65.21
2022-10-04T09:57:40.981Z,64.56
2022-10-04T10:00:24.809Z,64.16
2022-10-04T10:03:28.626Z,65.02
2022-10-04T10:06:23.283Z,65.41
2022-10-04T10:09:08.193Z,65.88
2022-10-04T10:12:01.664Z,65.75
2022-10-04T10:15:15.958Z,64.89
2022-10-04T10:17:54.510Z,65.79
2022-10-04T10:20:59.692Z,64.21
2022-10-04T10:24:13.239Z,63.82
2022-10-04T10:27:04.106Z,65.34
2022-10-04T10:30:03.415Z,66.23
2022-10-04T10:32:55.893Z,66.87
2022-10-04T10:35:36.599Z,66.86
2022-10-04T10:38:24.698Z,67.17
2022-10-04T10:41:20.320Z,66.81
2022-10-04T10:44:39.019Z,66.29
2022-10-04T10:47:29.526Z,66.95
2022-10-04T10:50:08.928Z,67.81
2022-10-04T10:53:15.567Z,67.11
2022-10-04T10:56:17.824Z,66.21
2022-10-04T10:59:13.138Z,66.92
2022-10-04T11:02:06.440Z,66.84
2022-10-04T11:04:54.873Z,66.08
2022-10-04T11:07:47.478Z,66.87
2022-10-04T11:10:52.472Z,66.45
2022-10-04T11:14:01.593Z,65.67
2022-10-04T11:16:49.141Z,66.16
2022-10-04T11:19:53.080Z,65.14
2022-10-04T11:23:11.012Z,65.21
2022-10-04T11:26:12.731Z,64.25
2022-10-04T11:28:47.687Z,63.92
2022-10-04T11:31:54.984Z,64.32
2022-10-04T11:34:59.650Z,62.71
2022-10-04T11:37:47.527Z,64.03
2022-10-04T11:40:30.059Z,65.02
2022-10-04T11:43:14.904Z,64.34
2022-10-04T11:46:19.083Z,64.32
2022-10-04T11:48:59.310Z,62.91
2022-10-04T11:52:06.161Z,62.43
2022-10-04T11:55:13.190Z,61.79
2022-10-04T11:57:51.620Z,62.55
2022-10-04T12:00:22.041Z,62.57
2022-10-04T12:03:19.377Z,60.33
2022-10-04T12:06:10.667Z,60.15
2022-10-04T12:08:49.708Z,61.17
2022-10-04T12:12:16.142Z,61.58
2022-10-04T12:15:08.496Z,61.11
2022-10-04T12:18:08.272Z,59.52
2022-10-04T12:21:04.184Z,58.72
2022-10-04T12:23:54.413Z,59.22
2022-10-04T12:26:56.922Z,58.45
2022-10-04T12:30:04.132Z,57.92
2022-10-04T12:32:37.998Z,58.56
2022-10-04T12:35:22.438Z,58.19
2022-10-04T12:38:13.689Z,59.20
2022-10-04T12:40:48.740Z,58.53
2022-10-04T12:43:30.882Z,58.54
2022-10-04T12:46:12.129Z,58.21
2022-10-04T12:48:53.852Z,57.83
2022-10-04T12:51:37.270Z,58.41
2022-10-04T12:54:17.286Z,57.39
2022-10-04T12:56:51.567Z,57.42
2022-10-04T12:59:39.131Z,56.35
2022-10-04T13:02:27.540Z,56.14
2022-10-04T13:05:00.251Z,56.74
2022-10-04T13:07:59.831Z,57.07
2022-10-04T13:10:50.123Z,56.73
2022-10-04T13:13:58.990Z,56.52
2022-10-04T13:19:39.395Z,57.26
2022-10-04T13:22:57.421Z,56.09
2022-10-04T13:25:37.746Z,55.99
2022-10-04T13:28:16.814Z,55.63
2022-10-04T13:30:49.555Z,56.32
2022-10-04T13:33:27.386Z,55.64
2022-10-04T13:36:03.094Z,56.15
2022-10-04T13:38:56.725Z,55.38
2022-10-04T13:41:39.198Z,55.94
2022-10-04T13:44:26.602Z,55.57
2022-10-04T13:47:10.319Z,55.19
2022-10-04T13:49:56.456Z,55.85
2022-10-04T13:52:56.381Z,55.88
2022-10-04T13:55:49.943Z,55.95
2022-10-04T13:58:30.322Z,55.33
2022-10-04T14:01:22.619Z,55.18
2022-10-04T14:04:06.893Z,55.80
2022-10-04T14:07:17.296Z,54.49
2022-10-04T14:10:11.935Z,53.82
2022-10-04T14:13:24.957Z,53.84
2022-10-04T14:16:15.405Z,54.55
2022-10-04T14:19:26.393Z,54.27
2022-10-04T14:22:19.370Z,55.37
2022-10-04T14:25:23.544Z,55.55
2022-10-04T14:28:31.204Z,54.66
2022-10-04T14:31:21.157Z,54.11
2022-10-04T14:34:25.765Z,54.48
2022-10-04T14:37:20.317Z,54.78
2022-10-04T14:40:21.590Z,54.42
2022-10-04T14:43:34.423Z,54.91
2022-10-04T14:46:15.839Z,55.54
2022-10-04T14:48:54.396Z,55.38
2022-10-04T14:51:46.972Z,55.35
2022-10-04T14:54:20.633Z,55.84
2022-10-04T14:57:02.737Z,55.38
2022-10-04T14:59:59.981Z,55.67
2022-10-04T15:03:06.668Z,55.77
2022-10-04T15:05:45.298Z,55.74
2022-10-04T15:08:35.368Z,56.13
2022-10-04T15:11:08.119Z,56.31
2022-10-04T15:13:42.425Z,56.36
2022-10-04T15:16:20.962Z,56.80
2022-10-04T15:18:53.743Z,56.85
2022-10-04T15:21:43.665Z,56.51
2022-10-04T15:24:46.774Z,56.39
2022-10-04T15:27:51.707Z,56.61
2022-10-04T15:30:37.190Z,57.36
2022-10-04T15:33:37.230Z,57.01
2022-10-04T15:36:35.105Z,57.39
2022-10-04T15:39:25.012Z,57.54
2022-10-04T15:41:58.616Z,58.03
2022-10-04T15:44:53.947Z,57.96
2022-10-04T15:47:29.003Z,58.14
2022-10-04T15:50:05.376Z,58.00
2022-10-04T15:52:55.553Z,57.96
2022-10-04T15:55:40.085Z,58.09
2022-10-04T15:58:29.365Z,58.07
2022-10-04T16:01:20.967Z,58.54
2022-10-04T16:04:13.093Z,58.65
2022-10-04T16:06:49.046Z,59.15
2022-10-04T16:09:27.341Z,59.64
2022-10-04T16:12:04.924Z,60.04
2022-10-04T16:14:50.640Z,60.26
2022-10-04T16:17:46.056Z,60.36
2022-10-04T16:20:28.665Z,60.88
2022-10-04T16:23:26.536Z,61.14
2022-10-04T16:25:56.049Z,61.52
2022-10-04T16:29:00.586Z,62.05
2022-10-04T16:31:42.881Z,62.19
2022-10-04T16:34:28.155Z,62.82
2022-10-04T16:37:02.518Z,62.77
2022-10-04T16:39:56.287Z,62.84
2022-10-04T16:42:29.522Z,63.39
2022-10-04T16:45:03.151Z,63.48
2022-10-04T16:47:34.519Z,63.83
2022-10-04T16:50:04.903Z,64.05
2022-10-04T16:53:00.361Z,63.92
2022-10-04T16:55:51.543Z,64.05
2022-10-04T16:58:55.795Z,64.48
2022-10-04T17:01:55.107Z,64.77
2022-10-04T17:04:55.770Z,65.21
2022-10-04T17:07:33.810Z,65.29
2022-10-04T17:10:21.252Z,65.86
2022-10-04T17:12:56.558Z,65.94
2022-10-04T17:15:44.676Z,66.14
2022-10-04T17:18:19.897Z,66.09
2022-10-04T17:20:57.583Z,66.69
2022-10-04T17:23:46.751Z,67.03
2022-10-04T17:26:30.203Z,67.71
2022-10-04T17:29:03.976Z,67.83
2022-10-04T17:31:46.555Z,67.65
2022-10-04T17:34:22.838Z,68.21
2022-10-04T17:36:55.933Z,68.14
2022-10-04T17:39:39.015Z,68.48
2022-10-04T17:42:34.468Z,69.36
2022-10-04T17:45:35.030Z,69.22
2022-10-04T17:48:26.645Z,69.81
2022-10-04T17:51:19.486Z,70.47
2022-10-04T17:54:10.600Z,70.50
2022-10-04T17:56:44.645Z,71.11
2022-10-04T17:59:19.294Z,72.02
2022-10-04T18:01:53.106Z,71.68
2022-10-04T18:04:25.781Z,72.68
2022-10-04T18:06:59.717Z,72.72
2022-10-04T18:09:33.336Z,73.14
2022-10-04T18:12:04.757Z,73.30
2022-10-04T18:15:01.235Z,73.03
2022-10-04T18:17:35.939Z,73.48
2022-10-04T18:20:26.336Z,73.75
2022-10-04T18:23:01.478Z,73.92
2022-10-04T18:25:31.371Z,73.92
2022-10-04T18:28:06.516Z,74.04
2022-10-04T18:30:52.238Z,73.83
2022-10-04T18:33:26.433Z,74.30
2022-10-04T18:36:01.808Z,74.69
2022-10-04T18:38:31.031Z,74.99
2022-10-04T18:41:01.986Z,75.44
2022-10-04T18:43:33.180Z,75.39
2022-10-04T18:46:05.150Z,75.73
2022-10-04T18:48:44.412Z,76.11
2022-10-04T18:51:27.264Z,75.60
2022-10-04T18:54:25.075Z,76.02
2022-10-04T18:57:03.648Z,75.62
2022-10-04T19:00:00.842Z,75.35
2022-10-04T19:02:38.439Z,75.53
2022-10-04T19:05:17.375Z,75.24
2022-10-04T19:07:54.987Z,76.24
2022-10-04T19:10:31.028Z,75.90
2022-10-04T19:13:15.480Z,75.97
2022-10-04T19:15:52.680Z,76.34
2022-10-04T19:18:37.345Z,76.34
2022-10-04T19:21:13.988Z,76.08
2022-10-04T19:23:52.417Z,76.38
2022-10-04T19:26:32.163Z,76.55
2022-10-04T19:29:12.140Z,76.75
2022-10-04T19:31:50.267Z,76.63
2022-10-04T19:34:25.840Z,77.11
2022-10-04T19:37:01.536Z,77.99
2022-10-04T19:39:39.043Z,78.14
2022-10-04T19:42:12.705Z,78.62
2022-10-04T19:44:52.905Z,78.78
2022-10-04T19:47:40.972Z,78.99
2022-10-04T19:50:19.576Z,78.78
2022-10-04T19:52:53.400Z,79.56
2022-10-04T19:55:25.117Z,79.44
2022-10-04T19:57:58.641Z,79.65
2022-10-04T20:00:26.651Z,80.02
2022-10-04T20:02:54.698Z,79.75
2022-10-04T20:05:25.783Z,80.47
2022-10-04T20:08:01.759Z,80.93
2022-10-04T20:10:33.589Z,80.55
2022-10-04T20:13:26.061Z,81.22
2022-10-04T20:15:59.893Z,81.25
2022-10-04T20:19:05.297Z,81.67
2022-10-04T20:21:34.966Z,82.71
2022-10-04T20:24:02.977Z,82.88
2022-10-04T20:27:06.172Z,83.13
2022-10-04T20:30:05.601Z,83.71
2022-10-04T20:32:56.804Z,83.20
2022-10-04T20:36:04.692Z,83.05
2022-10-04T20:38:53.266Z,82.96
2022-10-04T20:41:56.741Z,83.68
2022-10-04T20:44:51.355Z,82.91
2022-10-04T20:47:32.179Z,83.70
2022-10-04T20:50:01.830Z,83.78
2022-10-04T20:52:32.002Z,83.66
2022-10-04T20:55:03.030Z,83.55
2022-10-04T20:57:31.605Z,83.44
2022-10-04T20:59:59.939Z,83.33
2022-10-04T21:02:29.115Z,82.79
2022-10-04T21:05:13.429Z,82.37
2022-10-04T21:07:41.416Z,82.66
2022-10-04T21:10:18.854Z,81.89
2022-10-04T21:12:48.173Z,82.12
2022-10-04T21:15:22.308Z,81.37
2022-10-04T21:18:04.847Z,81.66
2022-10-04T21:20:47.128Z,81.81
2022-10-04T21:23:23.218Z,81.45
2022-10-04T21:25:52.597Z,81.87
2022-10-04T21:28:45.294Z,81.16
2022-10-04T21:31:13.201Z,81.72
2022-10-04T21:33:41.158Z,81.19
2022-10-04T21:36:09.507Z,80.89
2022-10-04T21:38:37.445Z,80.69
2022-10-04T21:41:07.043Z,80.94
2022-10-04T21:43:35.487Z,81.44
2022-10-04T21:46:03.463Z,81.07
2022-10-04T21:48:31.560Z,81.30
2022-10-04T21:51:00.023Z,81.13
2022-10-04T21:53:28.061Z,81.35
2022-10-04T21:55:56.020Z,81.28
2022-10-04T21:58:25.440Z,80.88
2022-10-04T22:00:53.370Z,80.99
2022-10-04T22:03:21.384Z,80.88
2022-10-04T22:05:49.587Z,81.00
2022-10-04T22:08:17.612Z,81.18
2022-10-04T22:10:46.483Z,81.11
2022-10-04T22:13:14.473Z,81.14
2022-10-04T22:15:43.814Z,81.27
2022-10-04T22:18:11.897Z,80.52
2022-10-04T22:20:39.871Z,79.83
2022-10-04T22:23:13.831Z,78.91
2022-10-04T22:25:42.144Z,78.01
2022-10-04T22:28:19.404Z,76.21
2022-10-04T22:30:49.613Z,75.07
2022-10-04T22:33:28.275Z,74.28
2022-10-04T22:35:59.105Z,73.23
2022-10-04T22:38:27.095Z,73.67
2022-10-04T22:40:55.022Z,72.11
2022-10-04T22:43:24.054Z,71.70
2022-10-04T22:45:55.514Z,70.86
2022-10-04T22:48:26.740Z,71.34
2022-10-04T22:50:54.682Z,71.01
2022-10-04T22:53:24.378Z,69.99
2022-10-04T22:55:56.068Z,70.17
2022-10-04T22:58:24.281Z,70.21
2022-10-04T23:00:53.547Z,69.55
2022-10-04T23:03:31.394Z,69.77
2022-10-04T23:05:59.597Z,70.02
2022-10-04T23:08:27.517Z,69.90
2022-10-04T23:10:57.664Z,69.87
2022-10-04T23:13:27.017Z,69.89
2022-10-04T23:16:00.655Z,70.01
2022-10-04T23:18:30.364Z,69.60
2022-10-04T23:21:01.900Z,69.73
2022-10-04T23:23:32.271Z,69.84
2022-10-04T23:26:00.196Z,70.39
2022-10-04T23:28:28.617Z,69.50
2022-10-04T23:31:03.413Z,70.02
2022-10-04T23:33:31.656Z,70.01
2022-10-04T23:35:59.643Z,70.26
2022-10-04T23:38:27.757Z,70.45
2022-10-04T23:40:55.777Z,70.78
2022-10-04T23:43:25.266Z,70.77
2022-10-04T23:45:53.447Z,70.81
2022-10-04T23:48:25.470Z,70.72
2022-10-04T23:50:54.119Z,70.13
2022-10-04T23:53:26.905Z,70.31
2022-10-04T23:55:56.181Z,70.08
2022-10-04T23:58:25.712Z,70.65
